sensor_id;sensor_type;location;lat;lon;timestamp;P1;durP1;ratioP1;P2;durP2;ratioP2
63093;SDS011;49183;51.380;0.098;2022-09-06T00:05:15;3.13;;;1.60;;
63093;SDS011;49183;51.380;0.098;2022-09-06T00:11:57;4.37;;;2.27;;
63093;SDS011;49183;51.380;0.098;2022-09-06T00:18:38;3.05;;;1.92;;
63093;SDS011;49183;51.380;0.098;2022-09-06T00:21:39;2.58;;;1.60;;
63093;SDS011;49183;51.380;0.098;2022-09-06T00:34:59;2.05;;;1.25;;
63093;SDS011;49183;51.380;0.098;2022-09-06T00:41:20;5.03;;;2.95;;
63093;SDS011;49183;51.380;0.098;2022-09-06T00:44:54;4.78;;;1.65;;
63093;SDS011;49183;51.380;0.098;2022-09-06T01:36:26;2.03;;;1.45;;
63093;SDS011;49183;51.380;0.098;2022-09-06T01:39:51;2.50;;;1.45;;
63093;SDS011;49183;51.380;0.098;2022-09-06T01:42:52;2.30;;;1.35;;
63093;SDS011;49183;51.380;0.098;2022-09-06T01:46:01;2.33;;;1.70;;
63093;SDS011;49183;51.380;0.098;2022-09-06T01:52:33;1.98;;;1.50;;
63093;SDS011;49183;51.380;0.098;2022-09-06T01:55:59;3.08;;;1.92;;
63093;SDS011;49183;51.380;0.098;2022-09-06T02:02:40;3.72;;;1.60;;
63093;SDS011;49183;51.380;0.098;2022-09-06T02:12:39;3.25;;;1.80;;
63093;SDS011;49183;51.380;0.098;2022-09-06T02:15:44;2.33;;;1.90;;
63093;SDS011;49183;51.380;0.098;2022-09-06T02:18:51;3.33;;;2.47;;
63093;SDS011;49183;51.380;0.098;2022-09-06T02:22:16;2.53;;;1.80;;
63093;SDS011;49183;51.380;0.098;2022-09-06T02:25:23;4.28;;;1.80;;
63093;SDS011;49183;51.380;0.098;2022-09-06T02:28:29;2.50;;;1.90;;
63093;SDS011;49183;51.380;0.098;2022-09-06T02:31:31;3.83;;;1.77;;
63093;SDS011;49183;51.380;0.098;2022-09-06T02:34:55;3.10;;;2.00;;
63093;SDS011;49183;51.380;0.098;2022-09-06T02:37:49;2.80;;;2.20;;
63093;SDS011;49183;51.380;0.098;2022-09-06T02:40:44;4.20;;;2.80;;
63093;SDS011;49183;51.380;0.098;2022-09-06T02:43:46;4.15;;;3.22;;
63093;SDS011;49183;51.380;0.098;2022-09-06T02:46:47;4.50;;;3.08;;
63093;SDS011;49183;51.380;0.098;2022-09-06T02:49:48;5.50;;;3.33;;
63093;SDS011;49183;51.380;0.098;2022-09-06T02:53:05;4.00;;;3.38;;
63093;SDS011;49183;51.380;0.098;2022-09-06T02:56:03;7.38;;;3.30;;
63093;SDS011;49183;51.380;0.098;2022-09-06T02:59:08;5.65;;;3.47;;
63093;SDS011;49183;51.380;0.098;2022-09-06T03:02:09;5.45;;;3.35;;
63093;SDS011;49183;51.380;0.098;2022-09-06T03:05:13;5.57;;;3.38;;
63093;SDS011;49183;51.380;0.098;2022-09-06T03:11:29;5.07;;;3.25;;
63093;SDS011;49183;51.380;0.098;2022-09-06T03:14:30;6.60;;;3.50;;
63093;SDS011;49183;51.380;0.098;2022-09-06T03:17:36;5.47;;;4.18;;
63093;SDS011;49183;51.380;0.098;2022-09-06T03:20:37;5.18;;;4.40;;
63093;SDS011;49183;51.380;0.098;2022-09-06T03:23:38;6.22;;;4.82;;
63093;SDS011;49183;51.380;0.098;2022-09-06T03:26:39;5.88;;;4.47;;
63093;SDS011;49183;51.380;0.098;2022-09-06T03:30:06;4.35;;;3.95;;
63093;SDS011;49183;51.380;0.098;2022-09-06T03:36:38;12.85;;;8.15;;
63093;SDS011;49183;51.380;0.098;2022-09-06T03:39:40;12.48;;;9.38;;
63093;SDS011;49183;51.380;0.098;2022-09-06T03:42:41;12.90;;;9.50;;
63093;SDS011;49183;51.380;0.098;2022-09-06T03:45:47;14.70;;;10.52;;
63093;SDS011;49183;51.380;0.098;2022-09-06T03:48:51;15.17;;;12.20;;
63093;SDS011;49183;51.380;0.098;2022-09-06T03:51:52;15.75;;;12.10;;
63093;SDS011;49183;51.380;0.098;2022-09-06T03:58:35;18.05;;;14.23;;
63093;SDS011;49183;51.380;0.098;2022-09-06T04:01:36;22.77;;;15.30;;
63093;SDS011;49183;51.380;0.098;2022-09-06T04:08:25;18.38;;;14.38;;
63093;SDS011;49183;51.380;0.098;2022-09-06T04:11:30;16.42;;;13.82;;
63093;SDS011;49183;51.380;0.098;2022-09-06T04:14:35;19.02;;;15.50;;
63093;SDS011;49183;51.380;0.098;2022-09-06T04:17:36;18.98;;;15.00;;
63093;SDS011;49183;51.380;0.098;2022-09-06T04:20:42;19.98;;;15.77;;
63093;SDS011;49183;51.380;0.098;2022-09-06T04:23:45;19.58;;;15.82;;
63093;SDS011;49183;51.380;0.098;2022-09-06T04:26:47;22.10;;;15.70;;
63093;SDS011;49183;51.380;0.098;2022-09-06T04:29:48;21.90;;;15.95;;
63093;SDS011;49183;51.380;0.098;2022-09-06T04:36:09;17.80;;;14.38;;
63093;SDS011;49183;51.380;0.098;2022-09-06T04:42:56;23.00;;;16.63;;
63093;SDS011;49183;51.380;0.098;2022-09-06T04:48:59;21.63;;;15.95;;
63093;SDS011;49183;51.380;0.098;2022-09-06T04:52:00;24.00;;;15.75;;
63093;SDS011;49183;51.380;0.098;2022-09-06T04:58:26;24.50;;;17.38;;
63093;SDS011;49183;51.380;0.098;2022-09-06T05:05:08;25.33;;;17.67;;
63093;SDS011;49183;51.380;0.098;2022-09-06T05:22:06;26.35;;;19.10;;
63093;SDS011;49183;51.380;0.098;2022-09-06T05:25:17;28.40;;;19.73;;
63093;SDS011;49183;51.380;0.098;2022-09-06T05:32:04;30.13;;;19.33;;
63093;SDS011;49183;51.380;0.098;2022-09-06T05:35:05;29.50;;;20.25;;
63093;SDS011;49183;51.380;0.098;2022-09-06T05:38:22;23.45;;;17.60;;
63093;SDS011;49183;51.380;0.098;2022-09-06T05:48:40;26.90;;;18.20;;
63093;SDS011;49183;51.380;0.098;2022-09-06T05:55:09;27.40;;;18.08;;
63093;SDS011;49183;51.380;0.098;2022-09-06T05:58:11;31.48;;;18.60;;
63093;SDS011;49183;51.380;0.098;2022-09-06T06:01:19;31.25;;;18.35;;
63093;SDS011;49183;51.380;0.098;2022-09-06T06:04:21;31.40;;;19.42;;
63093;SDS011;49183;51.380;0.098;2022-09-06T06:18:13;29.98;;;17.50;;
63093;SDS011;49183;51.380;0.098;2022-09-06T06:24:38;30.77;;;18.63;;
63093;SDS011;49183;51.380;0.098;2022-09-06T06:31:11;27.73;;;17.83;;
63093;SDS011;49183;51.380;0.098;2022-09-06T06:34:47;29.58;;;17.13;;
63093;SDS011;49183;51.380;0.098;2022-09-06T06:37:48;28.05;;;17.45;;
63093;SDS011;49183;51.380;0.098;2022-09-06T06:40:49;33.25;;;17.08;;
63093;SDS011;49183;51.380;0.098;2022-09-06T06:43:53;25.50;;;15.25;;
63093;SDS011;49183;51.380;0.098;2022-09-06T06:46:55;27.90;;;14.77;;
63093;SDS011;49183;51.380;0.098;2022-09-06T06:49:56;24.05;;;14.68;;
63093;SDS011;49183;51.380;0.098;2022-09-06T06:52:57;24.58;;;15.32;;
63093;SDS011;49183;51.380;0.098;2022-09-06T06:55:58;27.92;;;14.77;;
63093;SDS011;49183;51.380;0.098;2022-09-06T06:59:00;25.10;;;13.82;;
63093;SDS011;49183;51.380;0.098;2022-09-06T07:02:02;21.40;;;13.00;;
63093;SDS011;49183;51.380;0.098;2022-09-06T07:05:03;20.90;;;12.77;;
63093;SDS011;49183;51.380;0.098;2022-09-06T07:08:24;21.27;;;13.40;;
63093;SDS011;49183;51.380;0.098;2022-09-06T07:11:25;23.65;;;13.18;;
63093;SDS011;49183;51.380;0.098;2022-09-06T07:14:26;31.10;;;16.52;;
63093;SDS011;49183;51.380;0.098;2022-09-06T07:17:27;19.48;;;13.98;;
63093;SDS011;49183;51.380;0.098;2022-09-06T07:20:28;24.48;;;15.45;;
63093;SDS011;49183;51.380;0.098;2022-09-06T07:23:49;25.70;;;15.00;;
63093;SDS011;49183;51.380;0.098;2022-09-06T07:30:35;24.30;;;14.82;;
63093;SDS011;49183;51.380;0.098;2022-09-06T07:33:36;25.58;;;14.60;;
63093;SDS011;49183;51.380;0.098;2022-09-06T07:36:41;17.77;;;12.75;;
63093;SDS011;49183;51.380;0.098;2022-09-06T07:39:43;19.38;;;12.50;;
63093;SDS011;49183;51.380;0.098;2022-09-06T07:42:44;21.00;;;12.32;;
63093;SDS011;49183;51.380;0.098;2022-09-06T07:45:45;16.75;;;10.82;;
63093;SDS011;49183;51.380;0.098;2022-09-06T07:48:46;16.48;;;11.45;;
63093;SDS011;49183;51.380;0.098;2022-09-06T07:51:47;16.00;;;11.75;;
63093;SDS011;49183;51.380;0.098;2022-09-06T07:55:08;18.25;;;10.65;;
63093;SDS011;49183;51.380;0.098;2022-09-06T08:01:43;12.38;;;8.88;;
63093;SDS011;49183;51.380;0.098;2022-09-06T08:04:51;12.88;;;8.93;;
63093;SDS011;49183;51.380;0.098;2022-09-06T08:07:51;14.00;;;9.55;;
63093;SDS011;49183;51.380;0.098;2022-09-06T08:11:12;14.57;;;10.65;;
63093;SDS011;49183;51.380;0.098;2022-09-06T08:14:13;17.27;;;9.48;;
63093;SDS011;49183;51.380;0.098;2022-09-06T08:17:14;13.10;;;9.82;;
63093;SDS011;49183;51.380;0.098;2022-09-06T08:20:16;19.08;;;8.55;;
63093;SDS011;49183;51.380;0.098;2022-09-06T08:23:17;19.33;;;10.50;;
63093;SDS011;49183;51.380;0.098;2022-09-06T08:26:19;13.38;;;10.10;;
63093;SDS011;49183;51.380;0.098;2022-09-06T08:29:21;16.63;;;10.30;;
63093;SDS011;49183;51.380;0.098;2022-09-06T08:32:22;15.73;;;10.27;;
63093;SDS011;49183;51.380;0.098;2022-09-06T08:35:23;14.77;;;9.95;;
63093;SDS011;49183;51.380;0.098;2022-09-06T08:38:24;15.13;;;10.55;;
63093;SDS011;49183;51.380;0.098;2022-09-06T08:41:29;15.00;;;9.77;;
63093;SDS011;49183;51.380;0.098;2022-09-06T08:47:41;13.32;;;9.15;;
63093;SDS011;49183;51.380;0.098;2022-09-06T08:50:46;13.05;;;7.70;;
63093;SDS011;49183;51.380;0.098;2022-09-06T08:54:17;12.48;;;9.02;;
63093;SDS011;49183;51.380;0.098;2022-09-06T09:00:55;14.18;;;7.20;;
63093;SDS011;49183;51.380;0.098;2022-09-06T09:04:01;12.00;;;6.63;;
63093;SDS011;49183;51.380;0.098;2022-09-06T09:11:01;12.48;;;6.78;;
63093;SDS011;49183;51.380;0.098;2022-09-06T09:17:26;8.85;;;4.53;;
63093;SDS011;49183;51.380;0.098;2022-09-06T09:20:29;8.05;;;4.50;;
63093;SDS011;49183;51.380;0.098;2022-09-06T09:23:30;8.05;;;3.63;;
63093;SDS011;49183;51.380;0.098;2022-09-06T09:26:37;10.35;;;3.08;;
63093;SDS011;49183;51.380;0.098;2022-09-06T09:33:23;7.35;;;4.20;;
63093;SDS011;49183;51.380;0.098;2022-09-06T09:36:32;6.55;;;4.25;;
63093;SDS011;49183;51.380;0.098;2022-09-06T09:39:54;6.97;;;4.45;;
63093;SDS011;49183;51.380;0.098;2022-09-06T09:43:08;10.93;;;5.38;;
63093;SDS011;49183;51.380;0.098;2022-09-06T09:52:30;8.35;;;5.28;;
63093;SDS011;49183;51.380;0.098;2022-09-06T09:55:56;6.78;;;5.05;;
63093;SDS011;49183;51.380;0.098;2022-09-06T10:02:45;6.30;;;4.60;;
63093;SDS011;49183;51.380;0.098;2022-09-06T10:05:56;6.75;;;4.05;;
63093;SDS011;49183;51.380;0.098;2022-09-06T10:09:20;5.45;;;3.85;;
63093;SDS011;49183;51.380;0.098;2022-09-06T10:12:27;7.68;;;4.28;;
63093;SDS011;49183;51.380;0.098;2022-09-06T10:15:32;10.60;;;5.03;;
63093;SDS011;49183;51.380;0.098;2022-09-06T10:18:38;6.25;;;3.58;;
63093;SDS011;49183;51.380;0.098;2022-09-06T10:21:44;7.28;;;3.47;;
63093;SDS011;49183;51.380;0.098;2022-09-06T10:28:26;10.35;;;4.32;;
63093;SDS011;49183;51.380;0.098;2022-09-06T10:37:46;4.80;;;3.40;;
63093;SDS011;49183;51.380;0.098;2022-09-06T10:54:40;4.68;;;3.03;;
63093;SDS011;49183;51.380;0.098;2022-09-06T10:57:50;17.20;;;4.45;;
63093;SDS011;49183;51.380;0.098;2022-09-06T11:04:01;8.52;;;4.43;;
63093;SDS011;49183;51.380;0.098;2022-09-06T11:11:23;8.90;;;3.95;;
63093;SDS011;49183;51.380;0.098;2022-09-06T11:14:29;7.93;;;4.22;;
63093;SDS011;49183;51.380;0.098;2022-09-06T11:20:40;11.05;;;4.25;;
63093;SDS011;49183;51.380;0.098;2022-09-06T11:23:59;7.45;;;4.20;;
63093;SDS011;49183;51.380;0.098;2022-09-06T11:30:22;7.22;;;3.42;;
63093;SDS011;49183;51.380;0.098;2022-09-06T11:33:28;5.43;;;2.90;;
63093;SDS011;49183;51.380;0.098;2022-09-06T11:39:36;8.15;;;3.72;;
63093;SDS011;49183;51.380;0.098;2022-09-06T11:46:02;6.00;;;3.35;;
63093;SDS011;49183;51.380;0.098;2022-09-06T11:49:28;5.03;;;2.35;;
63093;SDS011;49183;51.380;0.098;2022-09-06T12:06:12;10.30;;;2.25;;
63093;SDS011;49183;51.380;0.098;2022-09-06T12:09:27;3.53;;;1.45;;
63093;SDS011;49183;51.380;0.098;2022-09-06T12:15:45;7.75;;;2.10;;
63093;SDS011;49183;51.380;0.098;2022-09-06T12:18:53;3.60;;;1.55;;
63093;SDS011;49183;51.380;0.098;2022-09-06T12:21:55;7.40;;;2.80;;
63093;SDS011;49183;51.380;0.098;2022-09-06T12:28:41;4.18;;;1.75;;
63093;SDS011;49183;51.380;0.098;2022-09-06T12:31:50;4.90;;;1.77;;
63093;SDS011;49183;51.380;0.098;2022-09-06T12:34:54;9.95;;;2.35;;
63093;SDS011;49183;51.380;0.098;2022-09-06T12:38:20;5.80;;;1.88;;
63093;SDS011;49183;51.380;0.098;2022-09-06T12:41:23;10.45;;;2.58;;
63093;SDS011;49183;51.380;0.098;2022-09-06T12:47:32;12.60;;;2.17;;
63093;SDS011;49183;51.380;0.098;2022-09-06T12:50:37;8.80;;;2.05;;
63093;SDS011;49183;51.380;0.098;2022-09-06T12:53:38;9.20;;;2.20;;
63093;SDS011;49183;51.380;0.098;2022-09-06T12:56:39;6.45;;;1.88;;
63093;SDS011;49183;51.380;0.098;2022-09-06T12:59:51;9.65;;;1.95;;
63093;SDS011;49183;51.380;0.098;2022-09-06T13:06:14;7.40;;;1.65;;
63093;SDS011;49183;51.380;0.098;2022-09-06T13:09:20;10.60;;;2.03;;
63093;SDS011;49183;51.380;0.098;2022-09-06T13:12:25;4.88;;;1.75;;
63093;SDS011;49183;51.380;0.098;2022-09-06T13:15:44;6.35;;;2.05;;
63093;SDS011;49183;51.380;0.098;2022-09-06T13:18:45;6.72;;;1.70;;
63093;SDS011;49183;51.380;0.098;2022-09-06T13:21:46;9.25;;;2.50;;
63093;SDS011;49183;51.380;0.098;2022-09-06T13:24:47;5.70;;;1.83;;
63093;SDS011;49183;51.380;0.098;2022-09-06T13:27:49;6.63;;;2.90;;
63093;SDS011;49183;51.380;0.098;2022-09-06T13:31:12;6.38;;;2.00;;
63093;SDS011;49183;51.380;0.098;2022-09-06T13:34:26;5.32;;;1.80;;
63093;SDS011;49183;51.380;0.098;2022-09-06T13:37:29;5.22;;;1.55;;
63093;SDS011;49183;51.380;0.098;2022-09-06T13:40:42;4.78;;;1.30;;
63093;SDS011;49183;51.380;0.098;2022-09-06T13:44:06;5.43;;;2.05;;
63093;SDS011;49183;51.380;0.098;2022-09-06T13:47:17;4.93;;;1.35;;
63093;SDS011;49183;51.380;0.098;2022-09-06T13:50:19;14.32;;;3.53;;
63093;SDS011;49183;51.380;0.098;2022-09-06T13:53:19;7.18;;;2.47;;
63093;SDS011;49183;51.380;0.098;2022-09-06T13:56:20;8.73;;;1.88;;
63093;SDS011;49183;51.380;0.098;2022-09-06T13:59:22;7.95;;;2.85;;
63093;SDS011;49183;51.380;0.098;2022-09-06T14:02:23;8.40;;;1.73;;
63093;SDS011;49183;51.380;0.098;2022-09-06T14:05:24;5.00;;;1.40;;
63093;SDS011;49183;51.380;0.098;2022-09-06T14:08:27;6.97;;;1.90;;
63093;SDS011;49183;51.380;0.098;2022-09-06T14:15:27;7.28;;;1.42;;
63093;SDS011;49183;51.380;0.098;2022-09-06T14:18:28;6.80;;;1.63;;
63093;SDS011;49183;51.380;0.098;2022-09-06T14:21:30;7.38;;;1.33;;
63093;SDS011;49183;51.380;0.098;2022-09-06T14:24:31;6.50;;;1.35;;
63093;SDS011;49183;51.380;0.098;2022-09-06T14:27:32;5.13;;;1.40;;
63093;SDS011;49183;51.380;0.098;2022-09-06T14:30:33;7.95;;;1.45;;
63093;SDS011;49183;51.380;0.098;2022-09-06T14:33:34;6.30;;;1.27;;
63093;SDS011;49183;51.380;0.098;2022-09-06T14:36:35;4.47;;;1.58;;
63093;SDS011;49183;51.380;0.098;2022-09-06T14:39:36;6.90;;;1.65;;
63093;SDS011;49183;51.380;0.098;2022-09-06T14:43:04;6.53;;;1.50;;
63093;SDS011;49183;51.380;0.098;2022-09-06T14:46:06;4.10;;;1.48;;
63093;SDS011;49183;51.380;0.098;2022-09-06T14:49:10;4.70;;;1.50;;
63093;SDS011;49183;51.380;0.098;2022-09-06T14:52:13;5.47;;;1.35;;
63093;SDS011;49183;51.380;0.098;2022-09-06T14:55:13;6.60;;;1.50;;
63093;SDS011;49183;51.380;0.098;2022-09-06T14:58:14;5.43;;;1.55;;
63093;SDS011;49183;51.380;0.098;2022-09-06T15:01:19;6.90;;;1.55;;
63093;SDS011;49183;51.380;0.098;2022-09-06T15:04:39;5.88;;;1.60;;
63093;SDS011;49183;51.380;0.098;2022-09-06T15:07:40;8.98;;;2.22;;
63093;SDS011;49183;51.380;0.098;2022-09-06T15:10:50;4.13;;;1.70;;
63093;SDS011;49183;51.380;0.098;2022-09-06T15:13:53;7.65;;;1.80;;
63093;SDS011;49183;51.380;0.098;2022-09-06T15:16:56;4.82;;;1.65;;
63093;SDS011;49183;51.380;0.098;2022-09-06T15:20:01;5.75;;;1.48;;
63093;SDS011;49183;51.380;0.098;2022-09-06T15:23:01;4.00;;;1.13;;
63093;SDS011;49183;51.380;0.098;2022-09-06T15:26:12;5.43;;;1.20;;
63093;SDS011;49183;51.380;0.098;2022-09-06T15:29:14;3.75;;;1.33;;
63093;SDS011;49183;51.380;0.098;2022-09-06T15:32:14;7.78;;;1.65;;
63093;SDS011;49183;51.380;0.098;2022-09-06T15:35:15;7.15;;;1.60;;
63093;SDS011;49183;51.380;0.098;2022-09-06T15:38:16;5.85;;;1.60;;
63093;SDS011;49183;51.380;0.098;2022-09-06T15:41:19;3.70;;;1.48;;
63093;SDS011;49183;51.380;0.098;2022-09-06T15:44:21;2.40;;;1.00;;
63093;SDS011;49183;51.380;0.098;2022-09-06T15:47:22;10.13;;;1.55;;
63093;SDS011;49183;51.380;0.098;2022-09-06T15:50:23;4.15;;;1.55;;
63093;SDS011;49183;51.380;0.098;2022-09-06T15:53:37;5.28;;;2.25;;
63093;SDS011;49183;51.380;0.098;2022-09-06T15:56:39;4.45;;;1.10;;
63093;SDS011;49183;51.380;0.098;2022-09-06T15:59:41;6.20;;;2.10;;
63093;SDS011;49183;51.380;0.098;2022-09-06T16:02:42;4.88;;;1.40;;
63093;SDS011;49183;51.380;0.098;2022-09-06T16:05:44;6.85;;;1.75;;
63093;SDS011;49183;51.380;0.098;2022-09-06T16:09:07;5.55;;;1.88;;
63093;SDS011;49183;51.380;0.098;2022-09-06T16:12:12;4.22;;;2.00;;
63093;SDS011;49183;51.380;0.098;2022-09-06T16:15:14;5.75;;;1.60;;
63093;SDS011;49183;51.380;0.098;2022-09-06T16:18:14;4.97;;;2.75;;
63093;SDS011;49183;51.380;0.098;2022-09-06T16:21:23;4.90;;;1.95;;
63093;SDS011;49183;51.380;0.098;2022-09-06T16:24:25;5.72;;;1.38;;
63093;SDS011;49183;51.380;0.098;2022-09-06T16:27:27;7.03;;;1.80;;
63093;SDS011;49183;51.380;0.098;2022-09-06T16:30:27;6.80;;;2.10;;
63093;SDS011;49183;51.380;0.098;2022-09-06T16:33:30;5.38;;;1.80;;
63093;SDS011;49183;51.380;0.098;2022-09-06T16:36:36;6.63;;;2.25;;
63093;SDS011;49183;51.380;0.098;2022-09-06T16:39:37;8.40;;;3.35;;
63093;SDS011;49183;51.380;0.098;2022-09-06T16:42:38;5.65;;;2.85;;
63093;SDS011;49183;51.380;0.098;2022-09-06T16:45:39;11.95;;;4.20;;
63093;SDS011;49183;51.380;0.098;2022-09-06T16:48:41;6.10;;;2.33;;
63093;SDS011;49183;51.380;0.098;2022-09-06T16:51:42;8.88;;;2.05;;
63093;SDS011;49183;51.380;0.098;2022-09-06T16:54:43;5.10;;;1.52;;
63093;SDS011;49183;51.380;0.098;2022-09-06T16:57:44;10.18;;;2.35;;
63093;SDS011;49183;51.380;0.098;2022-09-06T17:00:45;6.68;;;1.75;;
63093;SDS011;49183;51.380;0.098;2022-09-06T17:03:46;6.72;;;1.92;;
63093;SDS011;49183;51.380;0.098;2022-09-06T17:06:48;9.73;;;2.53;;
63093;SDS011;49183;51.380;0.098;2022-09-06T17:09:49;5.75;;;1.50;;
63093;SDS011;49183;51.380;0.098;2022-09-06T17:12:50;7.00;;;2.65;;
63093;SDS011;49183;51.380;0.098;2022-09-06T17:15:51;11.82;;;2.90;;
63093;SDS011;49183;51.380;0.098;2022-09-06T17:19:11;6.55;;;1.70;;
63093;SDS011;49183;51.380;0.098;2022-09-06T17:22:13;7.28;;;1.42;;
63093;SDS011;49183;51.380;0.098;2022-09-06T17:25:14;5.32;;;1.42;;
63093;SDS011;49183;51.380;0.098;2022-09-06T17:28:15;5.78;;;1.70;;
63093;SDS011;49183;51.380;0.098;2022-09-06T17:31:16;6.72;;;1.65;;
63093;SDS011;49183;51.380;0.098;2022-09-06T17:34:18;6.20;;;1.83;;
63093;SDS011;49183;51.380;0.098;2022-09-06T17:37:19;6.82;;;1.73;;
63093;SDS011;49183;51.380;0.098;2022-09-06T17:40:20;4.60;;;1.63;;
63093;SDS011;49183;51.380;0.098;2022-09-06T17:43:21;3.75;;;1.48;;
63093;SDS011;49183;51.380;0.098;2022-09-06T17:46:22;9.30;;;1.80;;
63093;SDS011;49183;51.380;0.098;2022-09-06T17:49:43;4.28;;;1.80;;
63093;SDS011;49183;51.380;0.098;2022-09-06T17:52:48;6.05;;;1.58;;
63093;SDS011;49183;51.380;0.098;2022-09-06T17:55:50;6.50;;;1.70;;
63093;SDS011;49183;51.380;0.098;2022-09-06T17:58:55;8.38;;;1.65;;
63093;SDS011;49183;51.380;0.098;2022-09-06T18:02:01;4.53;;;1.15;;
63093;SDS011;49183;51.380;0.098;2022-09-06T18:05:03;9.50;;;2.08;;
63093;SDS011;49183;51.380;0.098;2022-09-06T18:08:08;6.35;;;1.27;;
63093;SDS011;49183;51.380;0.098;2022-09-06T18:11:11;5.80;;;1.30;;
63093;SDS011;49183;51.380;0.098;2022-09-06T18:14:17;3.20;;;0.90;;
63093;SDS011;49183;51.380;0.098;2022-09-06T18:17:21;7.63;;;2.13;;
63093;SDS011;49183;51.380;0.098;2022-09-06T18:20:26;4.38;;;1.27;;
63093;SDS011;49183;51.380;0.098;2022-09-06T18:23:27;4.72;;;1.75;;
63093;SDS011;49183;51.380;0.098;2022-09-06T18:26:29;5.03;;;1.85;;
63093;SDS011;49183;51.380;0.098;2022-09-06T18:29:30;9.52;;;2.15;;
63093;SDS011;49183;51.380;0.098;2022-09-06T18:32:31;6.43;;;1.67;;
63093;SDS011;49183;51.380;0.098;2022-09-06T18:35:33;4.22;;;1.33;;
63093;SDS011;49183;51.380;0.098;2022-09-06T18:38:41;7.10;;;1.30;;
63093;SDS011;49183;51.380;0.098;2022-09-06T18:41:42;4.22;;;1.38;;
63093;SDS011;49183;51.380;0.098;2022-09-06T18:44:59;4.15;;;1.55;;
63093;SDS011;49183;51.380;0.098;2022-09-06T18:48:00;11.05;;;1.30;;
63093;SDS011;49183;51.380;0.098;2022-09-06T18:51:11;4.40;;;1.50;;
63093;SDS011;49183;51.380;0.098;2022-09-06T18:54:06;7.13;;;1.48;;
63093;SDS011;49183;51.380;0.098;2022-09-06T18:57:00;8.80;;;1.73;;
63093;SDS011;49183;51.380;0.098;2022-09-06T19:00:01;7.18;;;2.40;;
63093;SDS011;49183;51.380;0.098;2022-09-06T19:03:03;5.88;;;1.70;;
63093;SDS011;49183;51.380;0.098;2022-09-06T19:06:04;8.73;;;1.80;;
63093;SDS011;49183;51.380;0.098;2022-09-06T19:09:11;5.60;;;1.50;;
63093;SDS011;49183;51.380;0.098;2022-09-06T19:12:14;8.05;;;1.98;;
63093;SDS011;49183;51.380;0.098;2022-09-06T19:15:15;9.75;;;1.92;;
63093;SDS011;49183;51.380;0.098;2022-09-06T19:18:16;9.02;;;1.90;;
63093;SDS011;49183;51.380;0.098;2022-09-06T19:21:17;6.68;;;1.17;;
63093;SDS011;49183;51.380;0.098;2022-09-06T19:24:26;5.57;;;1.30;;
63093;SDS011;49183;51.380;0.098;2022-09-06T19:27:27;6.57;;;1.77;;
63093;SDS011;49183;51.380;0.098;2022-09-06T19:30:34;6.25;;;1.20;;
63093;SDS011;49183;51.380;0.098;2022-09-06T19:33:35;5.00;;;1.58;;
63093;SDS011;49183;51.380;0.098;2022-09-06T19:36:29;8.15;;;1.45;;
63093;SDS011;49183;51.380;0.098;2022-09-06T19:39:31;13.20;;;1.80;;
63093;SDS011;49183;51.380;0.098;2022-09-06T19:42:32;5.95;;;1.80;;
63093;SDS011;49183;51.380;0.098;2022-09-06T19:45:36;7.07;;;1.50;;
63093;SDS011;49183;51.380;0.098;2022-09-06T19:48:43;3.72;;;1.35;;
63093;SDS011;49183;51.380;0.098;2022-09-06T19:51:45;6.72;;;2.80;;
63093;SDS011;49183;51.380;0.098;2022-09-06T19:54:47;7.05;;;2.53;;
63093;SDS011;49183;51.380;0.098;2022-09-06T19:57:41;6.47;;;1.52;;
63093;SDS011;49183;51.380;0.098;2022-09-06T20:00:42;9.15;;;1.77;;
63093;SDS011;49183;51.380;0.098;2022-09-06T20:03:43;9.27;;;1.92;;
63093;SDS011;49183;51.380;0.098;2022-09-06T20:06:44;4.55;;;1.30;;
63093;SDS011;49183;51.380;0.098;2022-09-06T20:09:45;5.80;;;1.40;;
63093;SDS011;49183;51.380;0.098;2022-09-06T20:12:46;7.55;;;1.70;;
63093;SDS011;49183;51.380;0.098;2022-09-06T20:15:47;10.15;;;2.20;;
63093;SDS011;49183;51.380;0.098;2022-09-06T20:18:49;10.55;;;1.55;;
63093;SDS011;49183;51.380;0.098;2022-09-06T20:21:51;10.75;;;2.80;;
63093;SDS011;49183;51.380;0.098;2022-09-06T20:24:53;9.27;;;1.77;;
63093;SDS011;49183;51.380;0.098;2022-09-06T20:27:54;6.60;;;1.65;;
63093;SDS011;49183;51.380;0.098;2022-09-06T20:31:02;7.43;;;1.70;;
63093;SDS011;49183;51.380;0.098;2022-09-06T20:34:05;6.50;;;1.85;;
63093;SDS011;49183;51.380;0.098;2022-09-06T20:37:07;6.57;;;1.88;;
63093;SDS011;49183;51.380;0.098;2022-09-06T20:40:08;4.72;;;1.65;;
63093;SDS011;49183;51.380;0.098;2022-09-06T20:43:09;10.88;;;2.28;;
63093;SDS011;49183;51.380;0.098;2022-09-06T20:46:11;9.88;;;2.47;;
63093;SDS011;49183;51.380;0.098;2022-09-06T20:49:14;9.80;;;2.05;;
63093;SDS011;49183;51.380;0.098;2022-09-06T20:52:15;9.50;;;2.25;;
63093;SDS011;49183;51.380;0.098;2022-09-06T20:55:16;9.98;;;1.88;;
63093;SDS011;49183;51.380;0.098;2022-09-06T20:58:17;8.05;;;1.85;;
63093;SDS011;49183;51.380;0.098;2022-09-06T21:01:19;10.10;;;1.63;;
63093;SDS011;49183;51.380;0.098;2022-09-06T21:04:24;11.95;;;2.50;;
63093;SDS011;49183;51.380;0.098;2022-09-06T21:07:25;11.35;;;2.65;;
63093;SDS011;49183;51.380;0.098;2022-09-06T21:10:27;6.90;;;1.67;;
63093;SDS011;49183;51.380;0.098;2022-09-06T21:13:28;11.68;;;2.35;;
63093;SDS011;49183;51.380;0.098;2022-09-06T21:16:30;7.15;;;1.70;;
63093;SDS011;49183;51.380;0.098;2022-09-06T21:19:33;7.65;;;1.50;;
63093;SDS011;49183;51.380;0.098;2022-09-06T21:22:34;8.52;;;1.70;;
63093;SDS011;49183;51.380;0.098;2022-09-06T21:25:35;6.78;;;2.03;;
63093;SDS011;49183;51.380;0.098;2022-09-06T21:28:37;8.85;;;2.42;;
63093;SDS011;49183;51.380;0.098;2022-09-06T21:31:39;6.88;;;2.25;;
63093;SDS011;49183;51.380;0.098;2022-09-06T21:34:40;10.70;;;2.00;;
63093;SDS011;49183;51.380;0.098;2022-09-06T21:37:41;7.57;;;2.25;;
63093;SDS011;49183;51.380;0.098;2022-09-06T21:40:42;9.55;;;2.10;;
63093;SDS011;49183;51.380;0.098;2022-09-06T21:43:43;6.07;;;2.15;;
63093;SDS011;49183;51.380;0.098;2022-09-06T21:46:45;11.70;;;2.22;;
63093;SDS011;49183;51.380;0.098;2022-09-06T21:49:46;10.93;;;2.13;;
63093;SDS011;49183;51.380;0.098;2022-09-06T21:52:47;9.88;;;1.98;;
63093;SDS011;49183;51.380;0.098;2022-09-06T21:55:48;11.25;;;2.65;;
63093;SDS011;49183;51.380;0.098;2022-09-06T21:58:50;5.82;;;1.60;;
63093;SDS011;49183;51.380;0.098;2022-09-06T22:01:55;12.10;;;2.60;;
63093;SDS011;49183;51.380;0.098;2022-09-06T22:04:56;8.23;;;2.05;;
63093;SDS011;49183;51.380;0.098;2022-09-06T22:07:59;9.38;;;1.95;;
63093;SDS011;49183;51.380;0.098;2022-09-06T22:11:08;9.52;;;3.25;;
63093;SDS011;49183;51.380;0.098;2022-09-06T22:14:12;3.92;;;1.55;;
63093;SDS011;49183;51.380;0.098;2022-09-06T22:17:14;19.80;;;2.88;;
63093;SDS011;49183;51.380;0.098;2022-09-06T22:20:15;11.95;;;1.90;;
63093;SDS011;49183;51.380;0.098;2022-09-06T22:23:16;6.70;;;1.80;;
63093;SDS011;49183;51.380;0.098;2022-09-06T22:26:17;9.60;;;2.28;;
63093;SDS011;49183;51.380;0.098;2022-09-06T22:29:19;7.05;;;1.88;;
63093;SDS011;49183;51.380;0.098;2022-09-06T22:32:20;7.45;;;2.42;;
63093;SDS011;49183;51.380;0.098;2022-09-06T22:35:21;9.80;;;2.67;;
63093;SDS011;49183;51.380;0.098;2022-09-06T22:38:22;8.65;;;2.13;;
63093;SDS011;49183;51.380;0.098;2022-09-06T22:41:26;7.22;;;1.92;;
63093;SDS011;49183;51.380;0.098;2022-09-06T22:44:28;9.40;;;2.30;;
63093;SDS011;49183;51.380;0.098;2022-09-06T22:47:30;5.60;;;1.55;;
63093;SDS011;49183;51.380;0.098;2022-09-06T22:50:31;7.00;;;2.10;;
63093;SDS011;49183;51.380;0.098;2022-09-06T22:53:33;15.13;;;3.40;;
63093;SDS011;49183;51.380;0.098;2022-09-06T22:56:35;9.80;;;3.17;;